Time;durP1;ratioP1;P1;durP2;ratioP2;P2;SDS_P1;SDS_P2;PMS_P1;PMS_P2;Temp;Humidity;BMP_temperature;BMP_pressure;BME280_temperature;BME280_humidity;BME280_pressure;Samples;Min_cycle;Max_cycle;Signal;HPM_P1;HPM_P2
2024/01/18 00:00:39;;;;;;;79.55;35.50;;;;;;;;;;5077769;28;20366;-73
2024/01/18 00:03:06;;;;;;;65.15;29.38;;;;;;;;;;5076682;28;20020;-73
2024/01/18 00:05:32;;;;;;;55.83;29.30;;;;;;;;;;5096714;28;20016;-73
2024/01/18 00:07:59;;;;;;;63.17;30.25;;;;;;;;;;5096926;28;20085;-73
2024/01/18 00:10:27;;;;;;;68.70;29.65;;;;;;;;;;5095774;28;20397;-72
2024/01/18 00:12:54;;;;;;;53.30;29.02;;;;;;;;;;5095422;28;20008;-74
2024/01/18 00:15:21;;;;;;;59.17;30.80;;;;;;;;;;5077263;28;20042;-72
2024/01/18 00:17:49;;;;;;;60.88;31.35;;;;;;;;;;5095682;28;20031;-71
2024/01/18 00:20:16;;;;;;;55.78;28.52;;;;;;;;;;5095554;28;20027;-73
2024/01/18 00:22:49;;;;;;;56.85;29.00;;;;;;;;;;5095383;28;20075;-74
2024/01/18 00:25:19;;;;;;;56.17;29.52;;;;;;;;;;5094092;28;20044;-73
2024/01/18 00:27:45;;;;;;;55.38;29.55;;;;;;;;;;5095244;28;20032;-72
2024/01/18 00:30:12;;;;;;;55.40;28.83;;;;;;;;;;5095244;28;20027;-73
2024/01/18 00:32:40;;;;;;;56.28;28.58;;;;;;;;;;5095026;28;20471;-74
2024/01/18 00:35:07;;;;;;;59.20;32.47;;;;;;;;;;5095252;28;20028;-75
2024/01/18 00:37:32;;;;;;;65.70;34.55;;;;;;;;;;5076769;28;20020;-72
2024/01/18 00:39:59;;;;;;;77.03;38.90;;;;;;;;;;5095156;28;20016;-73
2024/01/18 00:42:24;;;;;;;69.55;37.50;;;;;;;;;;5094880;28;20028;-73
2024/01/18 00:44:50;;;;;;;68.00;35.22;;;;;;;;;;5076833;28;20024;-75
2024/01/18 00:47:17;;;;;;;62.30;34.00;;;;;;;;;;5095033;28;20030;-75
2024/01/18 00:49:46;;;;;;;66.22;36.47;;;;;;;;;;5095834;28;20027;-72
2024/01/18 00:52:13;;;;;;;64.75;36.13;;;;;;;;;;5095221;28;20095;-74
2024/01/18 00:54:38;;;;;;;76.05;38.08;;;;;;;;;;5076804;28;20374;-74
2024/01/18 00:57:04;;;;;;;69.68;37.95;;;;;;;;;;5095416;28;20032;-72
2024/01/18 00:59:30;;;;;;;73.78;38.17;;;;;;;;;;5076680;28;20111;-73
2024/01/18 01:01:55;;;;;;;72.88;40.05;;;;;;;;;;5075778;28;20079;-73
2024/01/18 01:04:21;;;;;;;70.15;37.35;;;;;;;;;;5094444;28;20032;-74
2024/01/18 01:06:49;;;;;;;70.25;38.70;;;;;;;;;;5094319;28;20150;-73
2024/01/18 01:09:14;;;;;;;73.40;37.70;;;;;;;;;;5094552;28;20129;-73
2024/01/18 01:11:40;;;;;;;72.60;37.45;;;;;;;;;;5094460;28;20488;-72
2024/01/18 01:14:06;;;;;;;70.47;36.47;;;;;;;;;;5094017;28;20020;-75
2024/01/18 01:16:32;;;;;;;61.50;33.00;;;;;;;;;;5094080;28;20028;-73
2024/01/18 01:18:59;;;;;;;64.88;32.58;;;;;;;;;;5094043;28;20034;-72
2024/01/18 01:21:25;;;;;;;54.95;31.42;;;;;;;;;;5094299;28;20066;-74
2024/01/18 01:23:51;;;;;;;61.17;31.65;;;;;;;;;;5093564;28;20031;-75
2024/01/18 01:26:17;;;;;;;57.88;31.58;;;;;;;;;;5093923;28;20024;-73
2024/01/18 01:28:44;;;;;;;52.38;27.98;;;;;;;;;;5093806;28;20457;-73
2024/01/18 01:31:10;;;;;;;50.75;27.83;;;;;;;;;;5094147;28;20032;-73
2024/01/18 01:33:36;;;;;;;55.25;28.13;;;;;;;;;;5093912;28;20517;-74
2024/01/18 01:36:02;;;;;;;46.30;26.05;;;;;;;;;;5093769;28;20090;-73
2024/01/18 01:38:36;;;;;;;59.00;29.92;;;;;;;;;;5093972;28;20020;-73
2024/01/18 01:41:03;;;;;;;50.72;28.73;;;;;;;;;;5075705;28;20518;-74
2024/01/18 01:43:30;;;;;;;57.30;30.60;;;;;;;;;;5093643;28;20099;-73
2024/01/18 01:45:57;;;;;;;56.85;28.95;;;;;;;;;;5075488;28;20040;-73
2024/01/18 01:48:23;;;;;;;57.63;29.33;;;;;;;;;;5093556;28;20020;-72
2024/01/18 01:50:49;;;;;;;53.60;29.77;;;;;;;;;;5076314;28;20389;-73
2024/01/18 01:53:20;;;;;;;60.60;29.20;;;;;;;;;;5075555;28;20036;-73
2024/01/18 01:55:46;;;;;;;61.03;29.40;;;;;;;;;;5075407;28;20020;-73
2024/01/18 01:58:17;;;;;;;52.75;28.60;;;;;;;;;;5075326;28;20020;-74
2024/01/18 02:00:44;;;;;;;42.97;24.63;;;;;;;;;;5093570;28;20028;-73
2024/01/18 02:03:10;;;;;;;41.42;24.63;;;;;;;;;;5093635;28;20023;-74
2024/01/18 02:05:36;;;;;;;42.88;23.92;;;;;;;;;;5076510;28;20464;-73
2024/01/18 02:08:02;;;;;;;46.67;24.30;;;;;;;;;;5078750;28;20023;-73
2024/01/18 02:10:29;;;;;;;41.80;23.05;;;;;;;;;;5097084;28;20016;-74
2024/01/18 02:12:56;;;;;;;42.15;22.48;;;;;;;;;;5098238;28;20035;-76
2024/01/18 02:15:27;;;;;;;36.75;20.80;;;;;;;;;;5080110;28;20032;-78
2024/01/18 02:17:54;;;;;;;40.30;20.92;;;;;;;;;;5081820;28;20032;-76
2024/01/18 02:20:22;;;;;;;32.10;17.00;;;;;;;;;;5101536;28;20097;-76
2024/01/18 02:22:49;;;;;;;31.63;17.58;;;;;;;;;;5095681;28;20036;-76
2024/01/18 02:25:21;;;;;;;28.38;16.35;;;;;;;;;;5076143;28;20532;-77
2024/01/18 02:27:46;;;;;;;29.70;15.82;;;;;;;;;;5076441;28;20017;-77
2024/01/18 02:30:12;;;;;;;32.67;16.50;;;;;;;;;;5077488;28;20020;-75
2024/01/18 02:32:40;;;;;;;28.60;16.55;;;;;;;;;;5076620;28;20027;-77
2024/01/18 02:35:08;;;;;;;27.73;16.50;;;;;;;;;;5076966;28;20032;-76
2024/01/18 02:37:41;;;;;;;26.77;16.92;;;;;;;;;;5077163;28;20021;-78
2024/01/18 02:40:16;;;;;;;26.90;16.17;;;;;;;;;;5077320;28;20021;-76
2024/01/18 02:42:42;;;;;;;24.55;15.00;;;;;;;;;;5077118;28;20024;-77
2024/01/18 02:45:08;;;;;;;27.25;15.70;;;;;;;;;;5076942;28;20025;-77
2024/01/18 02:47:49;;;;;;;28.35;15.98;;;;;;;;;;5077106;28;20020;-76
2024/01/18 02:50:15;;;;;;;26.88;15.70;;;;;;;;;;5076989;28;20049;-75
2024/01/18 02:52:41;;;;;;;30.23;17.38;;;;;;;;;;5076896;28;20082;-77
2024/01/18 02:55:07;;;;;;;28.27;16.77;;;;;;;;;;5076944;28;20369;-76
2024/01/18 02:57:33;;;;;;;28.05;16.60;;;;;;;;;;5075246;28;20127;-77
2024/01/18 02:59:58;;;;;;;28.98;17.00;;;;;;;;;;5075526;28;20031;-76
2024/01/18 03:02:24;;;;;;;29.95;17.05;;;;;;;;;;5075203;28;20082;-77
2024/01/18 03:04:52;;;;;;;26.80;16.70;;;;;;;;;;5075016;28;20016;-77
2024/01/18 03:07:18;;;;;;;29.92;16.70;;;;;;;;;;5075139;28;20112;-76
2024/01/18 03:09:45;;;;;;;30.13;16.42;;;;;;;;;;5076752;28;20378;-77
2024/01/18 03:12:11;;;;;;;25.60;16.30;;;;;;;;;;5076428;28;20024;-76
2024/01/18 03:14:36;;;;;;;27.08;15.98;;;;;;;;;;5076169;28;20028;-76
2024/01/18 03:17:04;;;;;;;25.80;16.65;;;;;;;;;;5075925;28;20020;-76
2024/01/18 03:19:30;;;;;;;22.63;13.93;;;;;;;;;;5076582;28;20150;-77
2024/01/18 03:21:57;;;;;;;23.30;14.43;;;;;;;;;;5076466;28;20021;-77
2024/01/18 03:24:23;;;;;;;26.63;16.42;;;;;;;;;;5080021;28;20101;-76
2024/01/18 03:26:49;;;;;;;27.35;15.48;;;;;;;;;;5077903;28;20354;-76
2024/01/18 03:29:15;;;;;;;26.20;14.80;;;;;;;;;;5096134;28;20016;-77
2024/01/18 03:31:41;;;;;;;29.92;16.13;;;;;;;;;;5096339;28;20016;-76
2024/01/18 03:34:07;;;;;;;29.98;17.25;;;;;;;;;;5096215;28;20024;-76
2024/01/18 03:36:35;;;;;;;28.65;17.20;;;;;;;;;;5096058;28;20031;-75
2024/01/18 03:39:03;;;;;;;26.45;16.15;;;;;;;;;;5096167;28;20052;-75
2024/01/18 03:41:29;;;;;;;29.77;16.80;;;;;;;;;;5096448;28;20035;-77
2024/01/18 03:43:54;;;;;;;30.20;17.80;;;;;;;;;;5096026;28;20034;-76
2024/01/18 03:46:20;;;;;;;28.38;17.08;;;;;;;;;;5095414;28;20031;-78
2024/01/18 03:48:47;;;;;;;32.65;18.67;;;;;;;;;;5096231;28;20024;-76
2024/01/18 03:51:14;;;;;;;29.33;17.48;;;;;;;;;;5098370;28;20024;-76
2024/01/18 03:53:43;;;;;;;29.65;17.38;;;;;;;;;;5097835;28;20024;-78
2024/01/18 03:56:12;;;;;;;34.60;18.45;;;;;;;;;;5077636;28;20533;-76
2024/01/18 03:58:42;;;;;;;30.63;19.08;;;;;;;;;;5077497;28;20425;-78
2024/01/18 04:01:10;;;;;;;34.60;19.95;;;;;;;;;;5096361;28;20354;-76
2024/01/18 04:03:37;;;;;;;35.08;18.70;;;;;;;;;;5096696;28;20353;-77
2024/01/18 04:06:02;;;;;;;37.50;19.88;;;;;;;;;;5095439;28;20024;-76
2024/01/18 04:08:29;;;;;;;31.77;19.13;;;;;;;;;;5077067;28;20032;-77
2024/01/18 04:10:54;;;;;;;41.95;22.77;;;;;;;;;;5094998;28;20039;-76
2024/01/18 04:13:19;;;;;;;35.92;20.75;;;;;;;;;;5095274;28;20020;-77
2024/01/18 04:15:45;;;;;;;35.20;20.42;;;;;;;;;;5095188;28;20153;-78
2024/01/18 04:18:11;;;;;;;33.22;19.90;;;;;;;;;;5095397;28;20028;-77
2024/01/18 04:20:37;;;;;;;33.67;18.77;;;;;;;;;;5094462;28;20032;-78
2024/01/18 04:23:03;;;;;;;31.85;18.33;;;;;;;;;;5095237;28;20457;-76
2024/01/18 04:25:30;;;;;;;34.22;19.40;;;;;;;;;;5094714;28;20044;-78
2024/01/18 04:27:57;;;;;;;36.15;19.30;;;;;;;;;;5094877;28;20029;-76
2024/01/18 04:30:25;;;;;;;34.53;19.15;;;;;;;;;;5094207;28;20047;-78
2024/01/18 04:32:50;;;;;;;36.30;19.25;;;;;;;;;;5095572;28;20027;-77
2024/01/18 04:35:17;;;;;;;38.10;20.40;;;;;;;;;;5095023;28;20028;-76
2024/01/18 04:37:44;;;;;;;34.13;20.05;;;;;;;;;;5094950;28;20024;-77
2024/01/18 04:40:09;;;;;;;37.30;21.50;;;;;;;;;;5094612;28;20460;-76
2024/01/18 04:42:37;;;;;;;41.72;21.30;;;;;;;;;;5094914;28;20107;-78
2024/01/18 04:45:03;;;;;;;33.90;20.58;;;;;;;;;;5095090;28;20012;-77
2024/01/18 04:47:29;;;;;;;36.88;20.48;;;;;;;;;;5094583;28;20492;-76
2024/01/18 04:49:57;;;;;;;37.38;19.95;;;;;;;;;;5076583;28;20062;-76
2024/01/18 04:52:24;;;;;;;37.10;21.40;;;;;;;;;;5094948;28;20398;-77
2024/01/18 04:54:49;;;;;;;39.80;21.67;;;;;;;;;;5094402;28;20492;-77
2024/01/18 04:57:17;;;;;;;40.90;21.23;;;;;;;;;;5094476;28;20028;-77
2024/01/18 04:59:42;;;;;;;36.92;20.42;;;;;;;;;;5094902;28;20028;-76
2024/01/18 05:02:09;;;;;;;36.17;21.27;;;;;;;;;;5094675;28;20028;-77
2024/01/18 05:04:35;;;;;;;41.08;21.42;;;;;;;;;;5094300;28;20038;-78
2024/01/18 05:07:00;;;;;;;44.67;22.40;;;;;;;;;;5095115;28;20086;-77
2024/01/18 05:09:26;;;;;;;38.95;20.95;;;;;;;;;;5094049;28;20024;-76
2024/01/18 05:11:51;;;;;;;36.97;19.63;;;;;;;;;;5094264;28;20031;-77
2024/01/18 05:14:18;;;;;;;40.42;22.92;;;;;;;;;;5094690;28;20016;-78
2024/01/18 05:16:50;;;;;;;34.78;19.80;;;;;;;;;;5094167;28;20031;-76
2024/01/18 05:19:25;;;;;;;37.60;20.45;;;;;;;;;;5094167;28;20073;-78
2024/01/18 05:21:51;;;;;;;33.88;18.55;;;;;;;;;;5094352;28;20035;-77
2024/01/18 05:24:17;;;;;;;34.17;18.17;;;;;;;;;;5094032;28;20052;-76
2024/01/18 05:26:45;;;;;;;32.35;19.55;;;;;;;;;;5094084;28;20397;-77
2024/01/18 05:29:13;;;;;;;34.63;19.85;;;;;;;;;;5094372;28;20012;-77
2024/01/18 05:31:39;;;;;;;38.75;20.20;;;;;;;;;;5094160;28;20023;-80
2024/01/18 05:34:05;;;;;;;37.53;20.25;;;;;;;;;;5094397;28;20023;-75
2024/01/18 05:36:31;;;;;;;35.75;20.65;;;;;;;;;;5094054;28;20047;-75
2024/01/18 05:38:56;;;;;;;36.40;20.73;;;;;;;;;;5075699;28;20081;-77
2024/01/18 05:41:23;;;;;;;37.50;22.23;;;;;;;;;;5075440;28;20384;-77
2024/01/18 05:43:48;;;;;;;36.10;22.17;;;;;;;;;;5095863;28;20028;-75
2024/01/18 05:46:14;;;;;;;39.92;21.15;;;;;;;;;;5094730;28;20031;-76
2024/01/18 05:48:40;;;;;;;43.85;24.25;;;;;;;;;;5093995;28;20035;-76
2024/01/18 05:51:07;;;;;;;45.42;23.27;;;;;;;;;;5094236;28;20020;-77
2024/01/18 05:53:35;;;;;;;44.92;23.52;;;;;;;;;;5094403;28;20035;-76
2024/01/18 05:56:03;;;;;;;44.80;22.90;;;;;;;;;;5093755;28;20355;-76
2024/01/18 05:58:31;;;;;;;45.97;25.83;;;;;;;;;;5093863;28;20028;-77
2024/01/18 06:00:58;;;;;;;42.67;24.95;;;;;;;;;;5093437;28;20094;-75
2024/01/18 06:03:24;;;;;;;46.40;23.38;;;;;;;;;;5058691;28;20466;-77
2024/01/18 06:05:51;;;;;;;48.53;26.60;;;;;;;;;;5093987;28;20073;-76
2024/01/18 06:08:16;;;;;;;49.28;25.75;;;;;;;;;;5093832;28;20373;-76
2024/01/18 06:10:43;;;;;;;45.90;24.85;;;;;;;;;;5093137;28;20449;-77
2024/01/18 06:13:09;;;;;;;44.83;26.85;;;;;;;;;;5093686;28;20025;-76
2024/01/18 06:15:36;;;;;;;48.70;27.50;;;;;;;;;;5093376;28;20027;-78
2024/01/18 06:18:03;;;;;;;54.70;27.42;;;;;;;;;;5075771;28;20027;-76
2024/01/18 06:20:30;;;;;;;53.78;29.30;;;;;;;;;;5076158;28;20024;-76
2024/01/18 06:23:01;;;;;;;59.60;30.38;;;;;;;;;;5075512;28;20096;-76
2024/01/18 06:25:28;;;;;;;53.30;27.60;;;;;;;;;;5093542;28;20399;-79
2024/01/18 06:27:55;;;;;;;52.83;28.27;;;;;;;;;;5094076;28;20270;-79
2024/01/18 06:30:20;;;;;;;58.47;31.15;;;;;;;;;;5094000;28;20376;-78
2024/01/18 06:32:47;;;;;;;60.67;29.83;;;;;;;;;;5093724;28;20479;-79
2024/01/18 06:35:13;;;;;;;61.08;30.20;;;;;;;;;;5093958;28;20016;-79
2024/01/18 06:37:41;;;;;;;52.58;27.30;;;;;;;;;;5094294;28;20037;-79
2024/01/18 06:40:09;;;;;;;55.67;29.48;;;;;;;;;;5094261;28;20095;-80
2024/01/18 06:42:35;;;;;;;60.78;29.65;;;;;;;;;;5094149;28;20346;-78
2024/01/18 06:45:02;;;;;;;56.25;31.15;;;;;;;;;;5093963;28;20012;-79
2024/01/18 06:47:28;;;;;;;56.30;29.38;;;;;;;;;;5076200;28;20024;-78
2024/01/18 06:50:09;;;;;;;63.00;30.85;;;;;;;;;;5094534;28;20069;-78
2024/01/18 06:52:36;;;;;;;52.90;29.33;;;;;;;;;;5097727;28;20424;-78
2024/01/18 06:55:02;;;;;;;58.15;30.05;;;;;;;;;;5098260;28;20016;-79
2024/01/18 06:57:29;;;;;;;65.22;31.77;;;;;;;;;;5098324;28;20027;-78
2024/01/18 06:59:56;;;;;;;63.90;30.33;;;;;;;;;;5097482;28;20028;-76
2024/01/18 07:02:22;;;;;;;62.33;29.80;;;;;;;;;;5097256;28;20122;-77
2024/01/18 07:04:48;;;;;;;62.95;31.95;;;;;;;;;;5097270;28;20028;-78
2024/01/18 07:07:14;;;;;;;55.75;29.13;;;;;;;;;;5096362;28;20427;-76
2024/01/18 07:09:43;;;;;;;57.05;29.77;;;;;;;;;;5097221;28;20364;-76
2024/01/18 07:12:09;;;;;;;55.45;28.63;;;;;;;;;;5096118;28;20091;-76
2024/01/18 07:14:34;;;;;;;62.53;31.63;;;;;;;;;;5096498;28;20012;-77
2024/01/18 07:17:00;;;;;;;61.15;31.48;;;;;;;;;;5097195;28;20033;-76
2024/01/18 07:19:25;;;;;;;65.57;31.48;;;;;;;;;;5098126;28;20373;-76
2024/01/18 07:21:53;;;;;;;63.05;31.75;;;;;;;;;;5099217;28;20476;-82
2024/01/18 07:24:18;;;;;;;65.85;31.00;;;;;;;;;;5098407;28;20445;-80
2024/01/18 07:26:43;;;;;;;64.13;31.83;;;;;;;;;;5096089;28;20488;-77
2024/01/18 07:29:09;;;;;;;63.28;31.45;;;;;;;;;;5096677;28;20077;-79
2024/01/18 07:31:34;;;;;;;59.50;31.23;;;;;;;;;;5097026;28;20182;-79
2024/01/18 07:33:59;;;;;;;58.65;30.55;;;;;;;;;;5097671;28;20016;-78
2024/01/18 07:36:25;;;;;;;61.63;29.80;;;;;;;;;;5079936;28;20042;-79
2024/01/18 07:38:50;;;;;;;59.88;29.42;;;;;;;;;;5097933;28;20058;-79
2024/01/18 07:41:15;;;;;;;59.35;30.13;;;;;;;;;;5097446;28;20031;-78
2024/01/18 07:43:40;;;;;;;53.42;28.50;;;;;;;;;;5099731;28;20046;-77
2024/01/18 07:46:06;;;;;;;54.25;29.17;;;;;;;;;;5102746;28;20028;-79
2024/01/18 07:48:31;;;;;;;53.70;27.85;;;;;;;;;;5101629;28;20012;-78
2024/01/18 07:50:57;;;;;;;54.92;28.85;;;;;;;;;;5101075;28;20020;-79
2024/01/18 07:53:23;;;;;;;54.60;28.95;;;;;;;;;;5103618;28;20019;-79
2024/01/18 07:55:48;;;;;;;55.40;29.60;;;;;;;;;;5098789;28;20468;-78
2024/01/18 07:58:14;;;;;;;63.40;29.33;;;;;;;;;;5096890;28;20104;-78
2024/01/18 08:00:39;;;;;;;56.63;28.52;;;;;;;;;;5097679;28;20024;-79
2024/01/18 08:03:04;;;;;;;58.22;29.70;;;;;;;;;;5096428;28;20435;-78
2024/01/18 08:05:29;;;;;;;59.38;29.10;;;;;;;;;;5097331;28;20012;-78
2024/01/18 08:07:55;;;;;;;62.97;29.67;;;;;;;;;;5097400;28;20458;-79
2024/01/18 08:10:20;;;;;;;58.80;30.85;;;;;;;;;;5096922;28;20016;-79
2024/01/18 08:12:47;;;;;;;62.05;32.65;;;;;;;;;;5097134;28;20364;-78
2024/01/18 08:15:13;;;;;;;55.90;31.02;;;;;;;;;;5096356;28;20085;-78
2024/01/18 08:17:40;;;;;;;63.75;31.13;;;;;;;;;;5097795;28;20020;-80
2024/01/18 08:20:16;;;;;;;62.08;31.05;;;;;;;;;;5098160;28;20035;-77
2024/01/18 08:22:46;;;;;;;60.63;31.90;;;;;;;;;;5097875;28;20418;-80
2024/01/18 08:25:14;;;;;;;60.30;31.05;;;;;;;;;;5075653;28;20049;-79
2024/01/18 08:27:40;;;;;;;60.78;29.38;;;;;;;;;;5075567;28;20276;-78
2024/01/18 08:30:06;;;;;;;65.22;30.58;;;;;;;;;;5075315;28;20480;-78
2024/01/18 08:32:34;;;;;;;55.08;31.02;;;;;;;;;;5075347;28;20028;-80
2024/01/18 08:35:07;;;;;;;63.70;33.15;;;;;;;;;;5075539;28;20025;-78
2024/01/18 08:37:37;;;;;;;56.30;30.60;;;;;;;;;;5074028;28;20119;-81
2024/01/18 08:40:04;;;;;;;60.78;31.67;;;;;;;;;;5075363;28;20303;-80
2024/01/18 08:42:30;;;;;;;56.03;29.98;;;;;;;;;;5073954;28;20106;-79
2024/01/18 08:44:55;;;;;;;56.65;29.23;;;;;;;;;;5074854;28;20024;-81
2024/01/18 08:47:22;;;;;;;61.05;32.35;;;;;;;;;;5075044;28;20059;-79
2024/01/18 08:49:47;;;;;;;57.05;29.88;;;;;;;;;;5075021;28;20043;-80
2024/01/18 08:52:13;;;;;;;56.83;30.58;;;;;;;;;;5075312;28;20403;-80
2024/01/18 08:54:38;;;;;;;56.35;29.63;;;;;;;;;;5075339;28;20385;-80
2024/01/18 08:57:03;;;;;;;49.13;28.77;;;;;;;;;;5075450;28;20095;-80
2024/01/18 08:59:29;;;;;;;58.20;28.08;;;;;;;;;;5075155;28;20031;-80
2024/01/18 09:01:55;;;;;;;53.63;29.17;;;;;;;;;;5075320;28;20081;-80
2024/01/18 09:04:20;;;;;;;51.85;28.77;;;;;;;;;;5075132;28;20028;-79
2024/01/18 09:06:45;;;;;;;49.63;27.73;;;;;;;;;;5074946;28;20114;-80
2024/01/18 09:09:11;;;;;;;45.72;26.30;;;;;;;;;;5075683;28;20012;-81
2024/01/18 09:11:37;;;;;;;54.08;28.42;;;;;;;;;;5075302;28;20552;-80
2024/01/18 09:14:03;;;;;;;47.95;26.73;;;;;;;;;;5074410;28;20025;-80
2024/01/18 09:16:28;;;;;;;44.72;26.08;;;;;;;;;;5074954;28;20019;-79
2024/01/18 09:18:54;;;;;;;43.65;25.55;;;;;;;;;;5075366;28;20017;-81
2024/01/18 09:21:19;;;;;;;44.92;24.85;;;;;;;;;;5074892;28;20028;-80
2024/01/18 09:23:44;;;;;;;46.95;25.60;;;;;;;;;;5074618;28;20497;-79
2024/01/18 09:26:09;;;;;;;46.85;24.50;;;;;;;;;;5091232;28;20047;-79
2024/01/18 09:28:35;;;;;;;45.75;25.55;;;;;;;;;;5095090;28;20016;-80
2024/01/18 09:31:00;;;;;;;48.65;25.45;;;;;;;;;;5095459;28;20020;-81
2024/01/18 09:33:25;;;;;;;45.35;25.80;;;;;;;;;;5092725;28;20493;-79
2024/01/18 09:35:52;;;;;;;52.30;26.40;;;;;;;;;;5093820;28;20048;-79
2024/01/18 09:38:17;;;;;;;50.92;27.33;;;;;;;;;;5093381;28;20378;-81
2024/01/18 09:40:43;;;;;;;47.22;26.98;;;;;;;;;;5092229;28;20025;-79
2024/01/18 09:43:10;;;;;;;48.88;27.00;;;;;;;;;;5092538;28;20377;-81
2024/01/18 09:45:36;;;;;;;46.42;26.08;;;;;;;;;;5092610;28;20050;-80
2024/01/18 09:48:03;;;;;;;51.70;27.85;;;;;;;;;;5093065;28;20109;-80
2024/01/18 09:50:28;;;;;;;46.33;27.52;;;;;;;;;;5094226;28;20016;-78
2024/01/18 09:52:54;;;;;;;49.10;27.08;;;;;;;;;;5094080;28;20065;-80
2024/01/18 09:55:19;;;;;;;43.78;25.40;;;;;;;;;;5094027;28;20100;-78
2024/01/18 09:57:47;;;;;;;41.55;23.17;;;;;;;;;;5093851;28;20020;-79
2024/01/18 10:00:14;;;;;;;42.83;24.30;;;;;;;;;;5094126;28;20027;-80
2024/01/18 10:02:39;;;;;;;43.38;24.02;;;;;;;;;;5093958;28;20042;-78
2024/01/18 10:05:05;;;;;;;49.65;25.33;;;;;;;;;;5075849;28;20028;-80
2024/01/18 10:07:31;;;;;;;42.17;23.33;;;;;;;;;;5075719;28;20388;-79
2024/01/18 10:09:57;;;;;;;48.15;24.35;;;;;;;;;;5093982;28;20023;-80
2024/01/18 10:12:22;;;;;;;43.88;24.08;;;;;;;;;;5093826;28;20027;-79
2024/01/18 10:14:47;;;;;;;43.47;24.38;;;;;;;;;;5093881;28;20076;-79
2024/01/18 10:17:22;;;;;;;41.83;23.05;;;;;;;;;;5095965;28;20020;-77
2024/01/18 10:20:13;;;;;;;45.25;25.35;;;;;;;;;;5094066;28;20021;-80
2024/01/18 10:22:39;;;;;;;39.55;23.23;;;;;;;;;;5093795;28;20023;-79
2024/01/18 10:25:09;;;;;;;41.65;23.13;;;;;;;;;;5093156;28;20044;-79
2024/01/18 10:27:34;;;;;;;41.80;21.88;;;;;;;;;;5096636;28;20372;-79
2024/01/18 10:30:01;;;;;;;36.40;20.70;;;;;;;;;;5097762;28;20461;-79
2024/01/18 10:32:30;;;;;;;40.15;23.35;;;;;;;;;;5079844;28;20054;-78
2024/01/18 10:34:55;;;;;;;43.08;23.63;;;;;;;;;;5097242;28;20020;-78
2024/01/18 10:37:20;;;;;;;38.53;23.48;;;;;;;;;;5097536;28;20020;-77
2024/01/18 10:39:47;;;;;;;45.60;24.63;;;;;;;;;;5097967;28;20046;-78
2024/01/18 10:42:13;;;;;;;42.22;24.30;;;;;;;;;;5079841;28;20028;-79
2024/01/18 10:44:42;;;;;;;47.63;25.55;;;;;;;;;;5079768;28;20452;-79
2024/01/18 10:47:12;;;;;;;42.50;23.30;;;;;;;;;;5079748;28;20409;-79
2024/01/18 10:49:38;;;;;;;45.60;25.17;;;;;;;;;;5098154;28;20020;-78
2024/01/18 10:52:04;;;;;;;44.80;24.70;;;;;;;;;;5098626;28;20453;-78
2024/01/18 10:54:30;;;;;;;45.05;25.55;;;;;;;;;;5098217;28;20091;-77
2024/01/18 10:56:59;;;;;;;43.70;25.42;;;;;;;;;;5097863;28;20012;-79
2024/01/18 10:59:25;;;;;;;46.28;24.75;;;;;;;;;;5097213;28;20165;-79
2024/01/18 11:01:52;;;;;;;46.72;24.98;;;;;;;;;;5097273;28;20597;-79
2024/01/18 11:04:18;;;;;;;44.25;23.95;;;;;;;;;;5096926;28;20072;-78
2024/01/18 11:06:44;;;;;;;49.45;25.25;;;;;;;;;;5097120;28;20128;-76
2024/01/18 11:09:12;;;;;;;45.22;26.02;;;;;;;;;;5096858;28;20407;-79
2024/01/18 11:11:39;;;;;;;47.15;25.00;;;;;;;;;;5097751;28;20024;-81
2024/01/18 11:14:05;;;;;;;46.60;26.33;;;;;;;;;;5097343;28;20023;-80
2024/01/18 11:16:31;;;;;;;42.88;26.13;;;;;;;;;;5097057;28;20016;-81
2024/01/18 11:19:03;;;;;;;48.65;26.83;;;;;;;;;;5096581;28;20023;-80
2024/01/18 11:21:41;;;;;;;46.03;27.35;;;;;;;;;;5096885;28;20020;-80
2024/01/18 11:24:16;;;;;;;50.63;27.27;;;;;;;;;;5097403;28;20031;-82
2024/01/18 11:26:41;;;;;;;47.80;26.55;;;;;;;;;;5099041;28;20024;-81
2024/01/18 11:29:18;;;;;;;47.83;24.63;;;;;;;;;;5098636;28;20019;-78
2024/01/18 11:31:50;;;;;;;49.65;26.40;;;;;;;;;;5097890;28;20457;-81
2024/01/18 11:34:31;;;;;;;44.90;24.88;;;;;;;;;;5096784;28;20024;-78
2024/01/18 11:37:13;;;;;;;50.47;25.98;;;;;;;;;;5094131;28;20069;-76
2024/01/18 11:39:48;;;;;;;51.47;27.58;;;;;;;;;;5093141;28;20016;-77
2024/01/18 11:42:19;;;;;;;51.30;26.95;;;;;;;;;;5095564;28;20016;-76
2024/01/18 11:44:51;;;;;;;52.60;29.38;;;;;;;;;;5095798;28;20024;-76
2024/01/18 11:47:17;;;;;;;48.28;27.45;;;;;;;;;;5093767;28;20560;-77
2024/01/18 11:49:43;;;;;;;51.97;28.02;;;;;;;;;;5096094;28;20008;-76
2024/01/18 11:52:09;;;;;;;54.00;29.48;;;;;;;;;;5095869;28;20024;-79
2024/01/18 11:54:35;;;;;;;56.28;29.55;;;;;;;;;;5095866;28;20017;-77
2024/01/18 11:57:01;;;;;;;55.80;28.25;;;;;;;;;;5077507;28;20028;-74
2024/01/18 11:59:30;;;;;;;57.53;29.55;;;;;;;;;;5095285;28;20145;-77
2024/01/18 12:01:55;;;;;;;56.90;30.70;;;;;;;;;;5094701;28;20012;-79
2024/01/18 12:04:20;;;;;;;56.83;31.27;;;;;;;;;;5083318;28;20380;-78
2024/01/18 12:06:46;;;;;;;58.63;29.27;;;;;;;;;;5082139;28;20012;-78
2024/01/18 12:09:12;;;;;;;58.85;30.65;;;;;;;;;;5083256;28;20436;-77
2024/01/18 12:11:37;;;;;;;54.60;30.20;;;;;;;;;;5099143;28;20016;-75
2024/01/18 12:14:03;;;;;;;51.83;29.13;;;;;;;;;;5098306;28;20022;-78
2024/01/18 12:16:30;;;;;;;59.10;29.45;;;;;;;;;;5096720;28;20103;-76
2024/01/18 12:18:55;;;;;;;51.55;26.83;;;;;;;;;;5096302;28;20016;-74
2024/01/18 12:21:22;;;;;;;51.95;26.38;;;;;;;;;;5078570;28;20491;-75
2024/01/18 12:23:47;;;;;;;49.95;27.17;;;;;;;;;;5097270;28;20095;-78
2024/01/18 12:26:14;;;;;;;48.33;25.83;;;;;;;;;;5096179;28;20140;-77
2024/01/18 12:28:39;;;;;;;41.83;24.65;;;;;;;;;;5096192;28;20127;-78
2024/01/18 12:31:04;;;;;;;48.60;26.50;;;;;;;;;;5097608;28;20026;-77
2024/01/18 12:33:31;;;;;;;46.83;26.70;;;;;;;;;;5097074;28;20015;-78
2024/01/18 12:35:58;;;;;;;49.83;28.15;;;;;;;;;;5094681;28;20069;-78
2024/01/18 12:38:24;;;;;;;53.85;28.70;;;;;;;;;;5094940;28;20020;-77
2024/01/18 12:40:50;;;;;;;51.88;27.95;;;;;;;;;;5094401;28;20410;-77
2024/01/18 12:43:15;;;;;;;52.38;28.65;;;;;;;;;;5094534;28;20072;-79
2024/01/18 12:45:42;;;;;;;53.13;29.75;;;;;;;;;;5094377;28;20027;-77
2024/01/18 12:48:08;;;;;;;50.95;28.20;;;;;;;;;;5077719;28;20008;-79
2024/01/18 12:50:36;;;;;;;52.75;28.55;;;;;;;;;;5094514;28;20008;-80
2024/01/18 12:53:03;;;;;;;48.35;26.52;;;;;;;;;;5095750;28;20024;-79
2024/01/18 12:55:30;;;;;;;50.20;26.45;;;;;;;;;;5097811;28;20016;-80
2024/01/18 12:57:57;;;;;;;48.55;27.08;;;;;;;;;;5078734;28;20012;-78
2024/01/18 13:00:22;;;;;;;47.13;26.83;;;;;;;;;;5097056;28;20397;-80
2024/01/18 13:02:48;;;;;;;47.15;27.00;;;;;;;;;;5096450;28;20070;-85
2024/01/18 13:05:17;;;;;;;47.08;26.95;;;;;;;;;;5080317;28;20019;-84
2024/01/18 13:07:42;;;;;;;54.22;24.42;;;;;;;;;;5096521;28;20020;-81
2024/01/18 13:10:10;;;;;;;46.90;24.40;;;;;;;;;;5095149;28;20024;-80
2024/01/18 13:12:36;;;;;;;41.03;22.63;;;;;;;;;;5093294;28;20027;-83
2024/01/18 13:15:01;;;;;;;44.47;24.15;;;;;;;;;;5096480;28;20099;-82
2024/01/18 13:17:26;;;;;;;52.03;26.05;;;;;;;;;;5076589;28;20012;-81
2024/01/18 13:19:53;;;;;;;51.55;26.50;;;;;;;;;;5094168;28;20108;-79
2024/01/18 13:22:18;;;;;;;48.65;25.80;;;;;;;;;;5094206;28;20023;-78
2024/01/18 13:24:44;;;;;;;50.05;27.75;;;;;;;;;;5094134;28;20044;-81
2024/01/18 13:27:11;;;;;;;49.67;28.63;;;;;;;;;;5076447;28;20026;-81
2024/01/18 13:29:38;;;;;;;54.90;27.50;;;;;;;;;;5077632;28;20040;-84
2024/01/18 13:32:04;;;;;;;47.25;27.65;;;;;;;;;;5097804;28;20020;-84
2024/01/18 13:34:30;;;;;;;47.78;27.33;;;;;;;;;;5096763;28;20035;-79
2024/01/18 13:36:56;;;;;;;50.80;28.35;;;;;;;;;;5077507;28;20060;-84
2024/01/18 13:39:24;;;;;;;59.08;30.58;;;;;;;;;;5099023;28;20020;-85
2024/01/18 13:41:50;;;;;;;51.28;29.48;;;;;;;;;;5096367;28;20495;-82
2024/01/18 13:44:15;;;;;;;52.50;29.77;;;;;;;;;;5096910;28;20465;-84
2024/01/18 13:46:41;;;;;;;56.10;29.65;;;;;;;;;;5096641;28;20069;-83
2024/01/18 13:49:09;;;;;;;55.67;31.52;;;;;;;;;;5098483;28;20403;-82
2024/01/18 13:51:37;;;;;;;59.20;31.15;;;;;;;;;;5094322;28;20031;-87
2024/01/18 13:54:03;;;;;;;55.00;30.35;;;;;;;;;;5081067;28;20043;-85
2024/01/18 13:56:29;;;;;;;61.83;30.38;;;;;;;;;;5095319;28;20042;-83
2024/01/18 13:58:54;;;;;;;56.30;29.27;;;;;;;;;;5075702;28;20029;-83
2024/01/18 14:01:20;;;;;;;60.65;30.85;;;;;;;;;;5093422;28;20050;-77
2024/01/18 14:03:47;;;;;;;58.10;31.05;;;;;;;;;;5076072;28;20079;-79
2024/01/18 14:06:16;;;;;;;59.33;30.52;;;;;;;;;;5093897;28;20020;-77
2024/01/18 14:08:43;;;;;;;61.80;33.00;;;;;;;;;;5093541;28;20043;-78
2024/01/18 14:11:10;;;;;;;63.15;31.40;;;;;;;;;;5094022;28;20024;-78
2024/01/18 14:13:36;;;;;;;56.30;31.17;;;;;;;;;;5075808;28;20020;-78